createdAt,value
2017-11-29T08:42:53.462Z,21.70
2017-11-29T08:45:42.902Z,15.20
2017-11-29T08:48:10.379Z,7.50
2017-11-29T08:50:46.991Z,2.90
2017-11-29T08:53:14.494Z,2.80
2017-11-29T08:55:42.023Z,2.30
2017-11-29T08:58:09.483Z,2.00
2017-11-29T09:00:36.969Z,1.80
2017-11-29T09:03:04.427Z,2.00
2017-11-29T09:05:31.905Z,2.00
2017-11-29T09:08:06.524Z,1.90
2017-11-29T09:10:34.286Z,1.90
2017-11-29T09:13:01.757Z,1.80
2017-11-29T09:15:30.023Z,1.80
2017-11-29T09:17:58.272Z,1.90
2017-11-29T09:20:25.815Z,1.80
2017-11-29T09:22:53.371Z,1.80
2017-11-29T09:25:20.893Z,1.90
2017-11-29T09:27:48.373Z,1.90
2017-11-29T09:30:15.862Z,2.00
2017-11-29T09:32:43.347Z,2.10
2017-11-29T09:35:11.595Z,2.00
2017-11-29T09:37:39.085Z,2.00
2017-11-29T09:40:06.599Z,1.90
2017-11-29T09:42:34.128Z,1.80
2017-11-29T09:45:01.611Z,1.80
2017-11-29T09:47:29.131Z,1.80
2017-11-29T09:49:56.622Z,1.70
2017-11-29T09:52:24.133Z,1.50
2017-11-29T09:54:52.389Z,1.40
2017-11-29T09:57:19.866Z,1.40
2017-11-29T09:59:48.152Z,1.60
2017-11-29T10:02:16.429Z,1.70
2017-11-29T10:04:43.917Z,1.70
2017-11-29T10:07:11.438Z,2.00
2017-11-29T10:09:38.929Z,2.10
2017-11-29T10:12:06.446Z,2.50
2017-11-29T10:14:34.765Z,2.60
2017-11-29T10:17:02.508Z,2.50
2017-11-29T10:19:30.457Z,2.60
2017-11-29T10:21:58.758Z,2.80
2017-11-29T10:24:26.295Z,2.80
2017-11-29T10:26:54.586Z,2.90
2017-11-29T10:29:22.118Z,3.00
2017-11-29T10:31:49.603Z,3.10
2017-11-29T10:34:18.380Z,3.00
2017-11-29T10:36:46.716Z,2.70
2017-11-29T10:39:14.219Z,2.70
2017-11-29T10:41:42.514Z,2.60
2017-11-29T10:44:10.153Z,2.60
2017-11-29T10:46:38.405Z,2.50
2017-11-29T10:49:05.903Z,2.50
2017-11-29T10:51:33.623Z,2.60
2017-11-29T10:54:01.133Z,2.70
2017-11-29T10:56:29.294Z,2.70
2017-11-29T10:58:56.797Z,2.60
2017-11-29T11:01:24.316Z,2.50
2017-11-29T11:03:51.826Z,2.60
2017-11-29T11:06:19.407Z,2.80
2017-11-29T11:08:47.064Z,2.90
2017-11-29T11:11:14.585Z,2.90
2017-11-29T11:13:42.081Z,2.90
2017-11-29T11:16:09.594Z,3.00
2017-11-29T11:18:37.835Z,3.20
2017-11-29T11:21:06.512Z,3.30
2017-11-29T11:23:33.976Z,3.20
2017-11-29T11:26:03.167Z,3.20
2017-11-29T11:28:30.736Z,3.20
2017-11-29T11:30:58.570Z,3.00
2017-11-29T11:33:26.139Z,3.10
2017-11-29T11:35:54.563Z,3.30
2017-11-29T11:38:22.152Z,3.30
2017-11-29T11:40:49.713Z,3.30
2017-11-29T11:43:17.232Z,3.30
2017-11-29T11:45:48.336Z,3.40
2017-11-29T11:48:15.808Z,3.20
2017-11-29T11:50:43.284Z,3.00
2017-11-29T11:53:10.758Z,2.80
2017-11-29T11:55:38.247Z,3.10
2017-11-29T11:58:05.774Z,3.40
2017-11-29T12:00:33.245Z,3.60
2017-11-29T12:03:00.714Z,3.70
2017-11-29T12:05:28.199Z,3.70
2017-11-29T12:07:55.676Z,3.50
2017-11-29T12:10:23.975Z,3.80
2017-11-29T12:12:54.857Z,3.90
2017-11-29T12:15:22.584Z,4.00
2017-11-29T12:17:50.067Z,3.80
2017-11-29T12:20:17.535Z,4.00
2017-11-29T12:22:45.014Z,4.10
2017-11-29T12:25:13.240Z,4.40
2017-11-29T12:27:40.746Z,4.40
2017-11-29T12:30:09.010Z,4.30
2017-11-29T12:32:36.473Z,4.30
2017-11-29T12:35:03.967Z,4.20
2017-11-29T12:37:31.426Z,4.00
2017-11-29T12:39:58.924Z,3.90
2017-11-29T12:42:26.404Z,3.90
2017-11-29T12:44:54.641Z,4.00
2017-11-29T12:47:22.153Z,3.90
2017-11-29T12:50:01.402Z,3.90
2017-11-29T12:52:28.895Z,3.80
2017-11-29T12:54:56.368Z,3.60
2017-11-29T12:57:23.860Z,3.30
2017-11-29T12:59:51.365Z,3.30
2017-11-29T13:02:18.846Z,3.30
2017-11-29T13:04:46.348Z,3.20
2017-11-29T13:07:13.842Z,0.90
2017-11-29T13:09:41.357Z,3.00
2017-11-29T13:12:08.912Z,3.10
2017-11-29T13:14:37.149Z,3.30
2017-11-29T13:17:04.647Z,3.20
2017-11-29T13:19:32.352Z,3.20
2017-11-29T13:21:59.824Z,3.20
2017-11-29T13:24:27.308Z,3.20
2017-11-29T13:26:54.769Z,3.40
2017-11-29T13:29:23.033Z,3.50
2017-11-29T13:31:50.534Z,3.40
2017-11-29T13:34:18.066Z,3.30
2017-11-29T13:36:46.379Z,3.10
2017-11-29T13:39:13.848Z,3.10
2017-11-29T13:41:41.332Z,3.20
2017-11-29T13:44:08.851Z,3.10
2017-11-29T13:46:36.317Z,3.00
2017-11-29T13:49:03.807Z,2.90
2017-11-29T13:51:31.323Z,2.90
2017-11-29T13:53:58.892Z,2.90
2017-11-29T13:56:26.442Z,2.80
2017-11-29T13:58:53.987Z,2.60
2017-11-29T14:01:21.460Z,2.60
2017-11-29T14:03:48.921Z,2.60
2017-11-29T14:06:16.385Z,2.50
2017-11-29T14:08:43.868Z,2.40
2017-11-29T14:11:11.374Z,2.40
2017-11-29T14:13:38.872Z,2.10
2017-11-29T14:16:06.357Z,2.00
2017-11-29T14:18:34.611Z,1.50
2017-11-29T14:21:02.103Z,1.60
2017-11-29T14:23:30.336Z,1.40
2017-11-29T14:25:57.832Z,1.40
2017-11-29T14:28:26.074Z,1.30
2017-11-29T14:30:53.567Z,1.30
2017-11-29T14:33:21.816Z,1.30
2017-11-29T14:35:50.078Z,1.30
2017-11-29T14:38:17.569Z,1.20
2017-11-29T14:40:45.085Z,1.30
2017-11-29T14:43:12.564Z,1.30
2017-11-29T14:45:40.104Z,1.40
2017-11-29T14:48:07.571Z,1.30
2017-11-29T14:50:35.058Z,1.30
2017-11-29T14:53:02.558Z,1.30
2017-11-29T14:55:30.041Z,1.30
2017-11-29T14:57:57.523Z,1.30
2017-11-29T15:00:25.031Z,1.30
2017-11-29T15:02:52.528Z,1.30
2017-11-29T15:05:20.019Z,1.30
2017-11-29T15:07:51.337Z,1.30
2017-11-29T15:10:18.809Z,1.30
2017-11-29T15:12:48.810Z,1.20
2017-11-29T15:15:16.289Z,1.20
2017-11-29T15:17:44.537Z,1.20
2017-11-29T15:20:12.026Z,1.20
2017-11-29T15:22:39.538Z,1.30
2017-11-29T15:25:07.010Z,1.30
2017-11-29T15:27:34.475Z,1.30
2017-11-29T15:30:01.951Z,1.30
2017-11-29T15:32:30.417Z,1.40
2017-11-29T15:34:57.870Z,1.40
2017-11-29T15:37:25.339Z,1.50
2017-11-29T15:39:59.555Z,1.40
2017-11-29T15:42:27.840Z,1.40
2017-11-29T15:44:55.303Z,1.40
2017-11-29T15:47:22.794Z,1.40
2017-11-29T15:49:53.704Z,1.40
2017-11-29T15:52:21.173Z,1.30
2017-11-29T15:54:49.804Z,1.40
2017-11-29T15:57:19.420Z,1.30
2017-11-29T15:59:47.979Z,1.30
2017-11-29T16:02:15.517Z,1.30
2017-11-29T16:04:43.086Z,1.20
2017-11-29T16:07:10.700Z,1.20
2017-11-29T16:09:38.510Z,1.20
2017-11-29T16:12:06.819Z,1.30
2017-11-29T16:14:34.388Z,1.30
2017-11-29T16:17:02.861Z,1.30
2017-11-29T16:19:30.496Z,1.30
2017-11-29T16:21:59.146Z,1.20
2017-11-29T16:24:26.858Z,1.20
2017-11-29T16:26:54.460Z,1.10
2017-11-29T16:29:22.818Z,1.10
2017-11-29T16:31:51.460Z,1.10
2017-11-29T16:34:19.216Z,1.00
2017-11-29T16:36:47.224Z,1.00
2017-11-29T16:39:14.987Z,1.00
2017-11-29T16:41:42.643Z,0.90
2017-11-29T16:44:10.267Z,0.90
2017-11-29T16:46:38.009Z,0.90
2017-11-29T16:49:05.561Z,0.90
2017-11-29T16:51:34.217Z,1.00
2017-11-29T16:54:01.878Z,0.90
2017-11-29T16:56:29.530Z,1.00
2017-11-29T16:58:57.152Z,1.00
2017-11-29T17:01:24.862Z,1.00
2017-11-29T17:03:52.414Z,1.00
2017-11-29T17:06:20.065Z,1.00
2017-11-29T17:08:47.688Z,1.10
2017-11-29T17:11:15.418Z,1.00
2017-11-29T17:13:43.955Z,1.10
2017-11-29T17:16:11.662Z,1.10
2017-11-29T17:18:40.030Z,1.20
2017-11-29T17:21:08.490Z,1.20
2017-11-29T17:23:36.893Z,1.30
2017-11-29T17:26:05.593Z,1.30
2017-11-29T17:28:33.371Z,1.30
2017-11-29T17:31:03.086Z,1.20
2017-11-29T17:33:30.767Z,1.20
2017-11-29T17:35:58.438Z,1.20
2017-11-29T17:38:28.390Z,1.30
2017-11-29T17:40:56.028Z,1.20
2017-11-29T17:43:24.020Z,1.20
2017-11-29T17:45:51.718Z,1.20
2017-11-29T17:48:19.558Z,1.20
2017-11-29T17:50:47.092Z,1.20
2017-11-29T17:53:14.610Z,1.30
2017-11-29T17:55:42.133Z,1.30
2017-11-29T17:58:09.625Z,1.30
2017-11-29T18:00:38.083Z,1.30
2017-11-29T18:03:05.743Z,1.30
2017-11-29T18:05:33.283Z,1.30
2017-11-29T18:08:00.808Z,1.30
2017-11-29T18:10:28.327Z,1.20
2017-11-29T18:12:56.595Z,1.20
2017-11-29T18:15:24.231Z,1.20
2017-11-29T18:17:52.136Z,1.20
2017-11-29T18:20:19.649Z,1.20
2017-11-29T18:22:47.174Z,1.10
2017-11-29T18:25:14.965Z,1.10
2017-11-29T18:27:42.470Z,1.10
2017-11-29T18:30:10.780Z,1.00
2017-11-29T18:32:38.276Z,1.20
2017-11-29T18:35:05.771Z,1.00
2017-11-29T18:37:34.041Z,1.00
2017-11-29T18:40:02.290Z,1.10
2017-11-29T18:42:29.796Z,1.00
2017-11-29T18:44:57.309Z,1.10
2017-11-29T18:47:24.819Z,1.10
2017-11-29T18:49:52.334Z,1.20
2017-11-29T18:52:20.624Z,1.00
2017-11-29T18:54:48.153Z,1.00
2017-11-29T18:57:15.656Z,1.00
2017-11-29T18:59:43.188Z,1.00
2017-11-29T19:02:10.683Z,1.00
2017-11-29T19:04:38.194Z,1.10
2017-11-29T19:07:05.712Z,0.90
2017-11-29T19:09:33.219Z,0.90
2017-11-29T19:12:00.722Z,1.00
2017-11-29T19:14:28.215Z,1.00
2017-11-29T19:16:55.756Z,1.00
2017-11-29T19:19:23.263Z,0.90
2017-11-29T19:21:50.750Z,0.90
2017-11-29T19:24:18.249Z,0.90
2017-11-29T19:26:45.765Z,1.00
2017-11-29T19:29:13.271Z,1.00
2017-11-29T19:31:40.777Z,1.00
2017-11-29T19:34:08.311Z,1.00
2017-11-29T19:36:36.575Z,0.90
2017-11-29T19:39:04.073Z,0.90
2017-11-29T19:41:31.638Z,0.90
2017-11-29T19:43:59.198Z,1.00
2017-11-29T19:46:26.748Z,1.00
2017-11-29T19:48:54.236Z,1.10
2017-11-29T19:51:21.747Z,1.00
2017-11-29T19:53:50.035Z,0.90
2017-11-29T19:56:17.576Z,0.90
2017-11-29T19:58:45.134Z,1.20
2017-11-29T20:01:13.418Z,1.10
2017-11-29T20:03:42.066Z,1.10
2017-11-29T20:06:09.582Z,1.10
2017-11-29T20:08:37.138Z,1.10
2017-11-29T20:11:04.627Z,1.10
2017-11-29T20:13:32.149Z,1.20
2017-11-29T20:15:59.652Z,1.10
2017-11-29T20:18:27.152Z,1.00
2017-11-29T20:20:54.680Z,1.20
2017-11-29T20:23:22.167Z,1.10
2017-11-29T20:25:49.667Z,1.10
2017-11-29T20:28:17.198Z,1.00
2017-11-29T20:30:44.702Z,1.00
2017-11-29T20:33:12.230Z,1.00
2017-11-29T20:35:39.739Z,1.00
2017-11-29T20:38:07.262Z,1.00
2017-11-29T20:40:34.771Z,1.00
2017-11-29T20:43:02.283Z,1.10
2017-11-29T20:45:29.777Z,1.10
2017-11-29T20:47:57.302Z,1.10
2017-11-29T20:50:24.788Z,1.10
2017-11-29T20:52:55.159Z,1.00
2017-11-29T20:55:22.656Z,1.00
2017-11-29T20:57:50.153Z,1.10
2017-11-29T21:00:17.653Z,1.00
2017-11-29T21:02:45.145Z,1.00
2017-11-29T21:05:12.661Z,1.10
2017-11-29T21:07:40.165Z,1.10
2017-11-29T21:10:08.434Z,1.20
2017-11-29T21:12:36.156Z,1.20
2017-11-29T21:15:03.638Z,1.10
2017-11-29T21:17:31.171Z,1.10
2017-11-29T21:19:58.646Z,1.20
2017-11-29T21:22:26.162Z,1.10
2017-11-29T21:24:53.671Z,1.10
2017-11-29T21:27:21.166Z,1.00
2017-11-29T21:29:48.813Z,1.00
2017-11-29T21:32:16.334Z,1.10
2017-11-29T21:34:43.836Z,1.00
2017-11-29T21:37:12.360Z,1.10
2017-11-29T21:39:39.841Z,1.10
2017-11-29T21:42:07.347Z,1.00
2017-11-29T21:44:35.599Z,1.00
2017-11-29T21:47:03.114Z,1.00
2017-11-29T21:49:30.625Z,1.00
2017-11-29T21:51:58.120Z,1.10
2017-11-29T21:54:25.649Z,1.10
2017-11-29T21:56:53.908Z,1.10
2017-11-29T21:59:21.377Z,1.10
2017-11-29T22:01:48.886Z,1.20
2017-11-29T22:04:16.380Z,1.20
2017-11-29T22:06:43.879Z,1.20
2017-11-29T22:09:11.385Z,1.10
2017-11-29T22:11:38.893Z,1.20
2017-11-29T22:14:06.412Z,1.10
2017-11-29T22:16:33.899Z,1.20
2017-11-29T22:19:01.398Z,1.10
2017-11-29T22:21:28.922Z,1.20
2017-11-29T22:23:56.438Z,1.10
2017-11-29T22:26:23.908Z,1.10
2017-11-29T22:28:51.420Z,1.00
2017-11-29T22:31:18.920Z,1.10
2017-11-29T22:33:46.395Z,1.10
2017-11-29T22:36:13.904Z,1.10
2017-11-29T22:38:41.414Z,1.00
2017-11-29T22:41:08.942Z,1.00
2017-11-29T22:43:36.448Z,1.10
2017-11-29T22:46:03.976Z,1.10
2017-11-29T22:48:31.470Z,1.10
2017-11-29T22:50:58.967Z,1.10
2017-11-29T22:53:26.438Z,1.00
2017-11-29T22:55:53.947Z,1.00
2017-11-29T22:58:21.427Z,1.00
2017-11-29T23:00:49.215Z,0.80
2017-11-29T23:03:16.711Z,1.00
2017-11-29T23:05:44.176Z,1.00
2017-11-29T23:08:11.736Z,0.90
2017-11-29T23:10:39.244Z,1.10
2017-11-29T23:13:06.733Z,0.90
2017-11-29T23:15:35.008Z,1.10
2017-11-29T23:18:03.266Z,1.10
2017-11-29T23:20:30.794Z,1.10
2017-11-29T23:22:58.281Z,1.10
2017-11-29T23:25:25.769Z,0.90
2017-11-29T23:27:53.278Z,0.90
2017-11-29T23:30:20.774Z,0.90
2017-11-29T23:32:49.028Z,1.00
2017-11-29T23:35:16.506Z,0.80
2017-11-29T23:37:44.022Z,1.00
2017-11-29T23:40:11.539Z,1.00
2017-11-29T23:42:39.029Z,1.00
2017-11-29T23:45:06.798Z,0.90
2017-11-29T23:47:34.377Z,1.00
2017-11-29T23:50:01.852Z,0.90
2017-11-29T23:52:29.359Z,0.90
2017-11-29T23:54:56.847Z,0.90
2017-11-29T23:57:24.333Z,0.90
2017-11-29T23:59:52.583Z,0.90
